createdAt,value
2023-02-12T00:01:10.822Z,18.80
2023-02-12T00:03:39.597Z,18.88
2023-02-12T00:06:10.331Z,20.65
2023-02-12T00:08:39.141Z,18.00
2023-02-12T00:11:12.442Z,17.23
2023-02-12T00:13:41.283Z,15.40
2023-02-12T00:16:10.446Z,15.05
2023-02-12T00:18:38.631Z,15.63
2023-02-12T00:21:09.806Z,15.02
2023-02-12T00:23:39.029Z,14.55
2023-02-12T00:26:08.913Z,19.00
2023-02-12T00:28:37.280Z,15.23
2023-02-12T00:31:09.849Z,16.23
2023-02-12T00:33:38.254Z,14.23
2023-02-12T00:36:09.716Z,16.92
2023-02-12T00:38:37.749Z,14.02
2023-02-12T00:41:06.288Z,22.17
2023-02-12T00:43:34.346Z,13.43
2023-02-12T00:46:02.573Z,17.85
2023-02-12T00:48:30.736Z,16.17
2023-02-12T00:50:58.834Z,16.42
2023-02-12T00:53:28.263Z,14.20
2023-02-12T00:55:56.801Z,13.65
2023-02-12T00:58:25.471Z,15.52
2023-02-12T01:00:54.304Z,18.98
2023-02-12T01:03:22.679Z,18.98
2023-02-12T01:05:50.786Z,15.55
2023-02-12T01:08:19.044Z,15.80
2023-02-12T01:10:56.464Z,13.80
2023-02-12T01:13:25.627Z,18.58
2023-02-12T01:16:03.440Z,17.45
2023-02-12T01:18:31.519Z,15.10
2023-02-12T01:20:59.603Z,15.68
2023-02-12T01:23:27.672Z,17.08
2023-02-12T01:25:59.552Z,15.60
2023-02-12T01:28:27.667Z,15.20
2023-02-12T01:30:55.845Z,15.52
2023-02-12T01:33:23.940Z,14.43
2023-02-12T01:35:52.203Z,14.50
2023-02-12T01:38:20.277Z,18.23
2023-02-12T01:40:48.384Z,17.42
2023-02-12T01:43:17.818Z,23.42
2023-02-12T01:45:56.866Z,25.45
2023-02-12T01:48:28.934Z,26.45
2023-02-12T01:50:58.100Z,22.05
2023-02-12T01:53:30.851Z,19.20
2023-02-12T01:56:02.463Z,17.52
2023-02-12T01:58:37.081Z,16.85
2023-02-12T02:01:08.243Z,18.90
2023-02-12T02:03:38.843Z,20.13
2023-02-12T02:06:12.854Z,18.92
2023-02-12T02:08:42.543Z,16.30
2023-02-12T02:11:25.038Z,16.00
2023-02-12T02:14:13.543Z,17.42
2023-02-12T02:16:48.220Z,14.15
2023-02-12T02:19:30.854Z,18.73
2023-02-12T02:22:19.704Z,16.75
2023-02-12T02:25:26.555Z,18.55
2023-02-12T02:28:07.393Z,17.90
2023-02-12T02:30:45.555Z,15.75
2023-02-12T02:33:26.766Z,13.82
2023-02-12T02:36:05.599Z,14.43
2023-02-12T02:38:40.571Z,19.35
2023-02-12T02:41:16.403Z,16.88
2023-02-12T02:43:48.966Z,14.60
2023-02-12T02:46:26.481Z,15.68
2023-02-12T02:49:00.505Z,15.20
2023-02-12T02:51:33.072Z,16.00
2023-02-12T02:54:07.194Z,15.57
2023-02-12T02:56:39.122Z,16.27
2023-02-12T02:59:12.492Z,14.82
2023-02-12T03:01:47.992Z,11.98
2023-02-12T03:04:21.099Z,13.85
2023-02-12T03:06:55.733Z,12.20
2023-02-12T03:09:27.795Z,16.33
2023-02-12T03:12:01.456Z,17.52
2023-02-12T03:14:33.412Z,14.98
2023-02-12T03:17:08.065Z,12.40
2023-02-12T03:19:40.884Z,18.45
2023-02-12T03:22:11.758Z,15.70
2023-02-12T03:24:45.570Z,14.32
2023-02-12T03:27:20.380Z,13.05
2023-02-12T03:29:48.761Z,16.48
2023-02-12T03:32:26.534Z,18.63
2023-02-12T03:35:03.759Z,13.90
2023-02-12T03:37:35.936Z,13.43
2023-02-12T03:40:15.550Z,17.13
2023-02-12T03:42:52.149Z,13.43
2023-02-12T03:45:30.371Z,15.57
2023-02-12T03:48:07.496Z,11.63
2023-02-12T03:50:42.610Z,12.98
2023-02-12T03:53:10.790Z,14.60
2023-02-12T03:55:43.732Z,13.82
2023-02-12T03:58:17.864Z,15.73
2023-02-12T04:00:46.373Z,14.40
2023-02-12T04:03:15.895Z,15.38
2023-02-12T04:05:44.042Z,15.32
2023-02-12T04:08:13.780Z,12.77
2023-02-12T04:10:54.274Z,16.20
2023-02-12T04:13:29.841Z,16.23
2023-02-12T04:16:13.550Z,13.98
2023-02-12T04:18:45.835Z,11.05
2023-02-12T04:21:21.252Z,12.27
2023-02-12T04:23:58.756Z,15.18
2023-02-12T04:26:37.323Z,12.52
2023-02-12T04:29:15.616Z,13.70
2023-02-12T04:31:49.053Z,11.88
2023-02-12T04:34:24.648Z,13.95
2023-02-12T04:36:57.200Z,16.75
2023-02-12T04:39:28.834Z,12.68
2023-02-12T04:42:00.104Z,14.10
2023-02-12T04:44:30.839Z,12.75
2023-02-12T04:46:59.495Z,11.73
2023-02-12T04:49:28.976Z,11.90
2023-02-12T04:51:57.244Z,12.55
2023-02-12T04:54:25.661Z,18.67
2023-02-12T04:56:53.757Z,12.30
2023-02-12T04:59:22.058Z,14.65
2023-02-12T05:01:50.231Z,12.00
2023-02-12T05:04:18.938Z,13.90
2023-02-12T05:06:48.676Z,13.48
2023-02-12T05:09:19.196Z,14.82
2023-02-12T05:11:47.839Z,15.68
2023-02-12T05:14:16.242Z,18.42
2023-02-12T05:16:44.426Z,12.00
2023-02-12T05:19:13.194Z,20.50
2023-02-12T05:21:41.269Z,12.43
2023-02-12T05:24:10.995Z,13.23
2023-02-12T05:26:39.129Z,13.95
2023-02-12T05:29:07.182Z,14.70
2023-02-12T05:31:35.618Z,13.10
2023-02-12T05:34:03.746Z,11.43
2023-02-12T05:36:31.862Z,14.10
2023-02-12T05:39:00.980Z,14.63
2023-02-12T05:41:34.872Z,13.38
2023-02-12T05:44:03.103Z,11.65
2023-02-12T05:46:31.459Z,13.80
2023-02-12T05:48:59.514Z,11.20
2023-02-12T05:51:28.858Z,11.70
2023-02-12T05:54:00.111Z,10.57
2023-02-12T05:56:31.891Z,13.32
2023-02-12T05:59:03.386Z,14.00
2023-02-12T06:01:33.489Z,14.10
2023-02-12T06:04:02.131Z,9.45
2023-02-12T06:06:31.096Z,13.80
2023-02-12T06:08:59.626Z,9.25
2023-02-12T06:11:28.383Z,10.63
2023-02-12T06:13:57.757Z,26.08
2023-02-12T06:16:28.484Z,10.70
2023-02-12T06:18:57.897Z,11.95
2023-02-12T06:21:27.574Z,16.27
2023-02-12T06:23:55.705Z,9.65
2023-02-12T06:26:24.133Z,11.10
2023-02-12T06:28:52.354Z,13.10
2023-02-12T06:31:24.616Z,12.18
2023-02-12T06:33:53.891Z,11.70
2023-02-12T06:36:23.005Z,13.45
2023-02-12T06:38:51.859Z,11.13
2023-02-12T06:41:20.294Z,19.65
2023-02-12T06:43:48.418Z,10.85
2023-02-12T06:46:16.785Z,15.90
2023-02-12T06:48:46.202Z,14.80
2023-02-12T06:51:16.451Z,10.95
2023-02-12T06:53:45.159Z,9.50
2023-02-12T06:56:14.239Z,9.68
2023-02-12T06:58:43.825Z,9.50
2023-02-12T07:01:15.057Z,10.07
2023-02-12T07:03:46.065Z,10.63
2023-02-12T07:06:14.726Z,12.73
2023-02-12T07:08:42.783Z,10.95
2023-02-12T07:11:11.027Z,10.20
2023-02-12T07:13:39.863Z,9.60
2023-02-12T07:16:10.119Z,395.52
2023-02-12T07:18:38.912Z,253.65
2023-02-12T07:21:10.590Z,644.78
2023-02-12T07:23:38.824Z,348.45
2023-02-12T07:26:08.474Z,232.63
2023-02-12T07:28:36.844Z,48.42
2023-02-12T07:31:09.387Z,25.88
2023-02-12T07:33:38.016Z,13.30
2023-02-12T07:36:09.834Z,11.40
2023-02-12T07:38:39.870Z,10.77
2023-02-12T07:41:10.847Z,9.43
2023-02-12T07:43:39.555Z,12.63
2023-02-12T07:46:09.719Z,12.35
2023-02-12T07:48:37.790Z,11.75
2023-02-12T07:51:09.242Z,14.43
2023-02-12T07:53:37.677Z,10.82
2023-02-12T07:56:11.382Z,10.02
2023-02-12T07:58:40.621Z,9.65
2023-02-12T08:01:17.931Z,10.07
2023-02-12T08:03:47.055Z,12.05
2023-02-12T08:06:18.937Z,11.00
2023-02-12T08:08:47.446Z,12.77
2023-02-12T08:11:16.634Z,11.38
2023-02-12T08:13:44.954Z,16.73
2023-02-12T08:16:14.924Z,12.13
2023-02-12T08:18:43.805Z,15.63
2023-02-12T08:21:13.734Z,17.67
2023-02-12T08:23:43.505Z,12.60
2023-02-12T08:26:14.434Z,15.40
2023-02-12T08:28:45.026Z,15.40
2023-02-12T08:31:14.948Z,14.53
2023-02-12T08:33:43.266Z,11.33
2023-02-12T08:36:13.090Z,9.63
2023-02-12T08:38:43.774Z,14.33
2023-02-12T08:41:13.986Z,10.83
2023-02-12T08:43:42.862Z,11.07
2023-02-12T08:46:12.956Z,15.27
2023-02-12T08:48:41.984Z,21.00
2023-02-12T08:51:11.986Z,16.67
2023-02-12T08:53:43.307Z,66.87
2023-02-12T08:56:12.526Z,15.97
2023-02-12T08:58:40.718Z,21.43
2023-02-12T09:01:12.215Z,20.33
2023-02-12T09:03:40.521Z,20.37
2023-02-12T09:06:09.275Z,27.30
2023-02-12T09:08:37.812Z,18.00
2023-02-12T09:11:09.070Z,17.20
2023-02-12T09:13:37.951Z,17.50
2023-02-12T09:16:07.189Z,14.43
2023-02-12T09:18:35.890Z,17.77
2023-02-12T09:21:05.977Z,17.80
2023-02-12T09:23:34.322Z,12.00
2023-02-12T09:26:06.243Z,17.33
2023-02-12T09:28:36.184Z,23.07
2023-02-12T09:31:07.303Z,21.10
2023-02-12T09:33:35.555Z,18.93
2023-02-12T09:36:04.345Z,15.90
2023-02-12T09:38:32.775Z,31.67
2023-02-12T09:41:19.940Z,26.00
2023-02-12T09:43:54.789Z,20.97
2023-02-12T09:46:31.034Z,17.30
2023-02-12T09:49:06.296Z,15.27
2023-02-12T09:51:34.739Z,17.30
2023-02-12T09:54:06.173Z,19.77
2023-02-12T09:56:36.498Z,25.07
2023-02-12T09:59:08.817Z,17.00
2023-02-12T10:01:37.336Z,19.37
2023-02-12T10:04:07.216Z,18.20
2023-02-12T10:06:42.715Z,21.33
2023-02-12T10:09:34.298Z,22.80
2023-02-12T10:12:08.241Z,21.43
2023-02-12T10:15:08.684Z,21.87
2023-02-12T10:17:43.396Z,20.20
2023-02-12T10:20:41.677Z,18.40
2023-02-12T10:23:27.165Z,21.43
2023-02-12T10:25:57.944Z,21.00
2023-02-12T10:28:28.552Z,24.70
2023-02-12T10:31:01.146Z,31.50
2023-02-12T10:33:33.006Z,24.90
2023-02-12T10:36:06.250Z,25.57
2023-02-12T10:38:39.375Z,21.13
2023-02-12T10:41:07.468Z,24.03
2023-02-12T10:43:35.588Z,26.83
2023-02-12T10:46:05.332Z,22.90
2023-02-12T10:48:38.198Z,21.70
2023-02-12T10:51:28.976Z,26.00
2023-02-12T10:53:57.180Z,27.50
2023-02-12T10:56:26.520Z,25.73
2023-02-12T10:58:57.220Z,28.40
2023-02-12T11:01:29.559Z,26.50
2023-02-12T11:03:59.724Z,27.17
2023-02-12T11:06:29.870Z,25.47
2023-02-12T11:08:59.155Z,27.17
2023-02-12T11:11:30.734Z,24.23
2023-02-12T11:14:01.902Z,23.47
2023-02-12T11:16:33.793Z,25.23
2023-02-12T11:19:04.790Z,23.70
2023-02-12T11:21:33.473Z,22.23
2023-02-12T11:24:28.108Z,23.03
2023-02-12T11:27:14.117Z,24.23
2023-02-12T11:29:42.458Z,25.80
2023-02-12T11:32:18.148Z,27.43
2023-02-12T11:35:02.426Z,18.57
2023-02-12T11:37:31.659Z,26.60
2023-02-12T11:39:59.872Z,28.20
2023-02-12T11:42:38.555Z,30.10
2023-02-12T11:45:06.984Z,25.93
2023-02-12T11:47:41.611Z,28.87
2023-02-12T11:50:23.123Z,30.30
2023-02-12T11:52:53.165Z,29.37
2023-02-12T11:55:25.138Z,36.23
2023-02-12T11:57:54.356Z,28.60
2023-02-12T12:00:26.202Z,31.97
2023-02-12T12:03:00.443Z,34.23
2023-02-12T12:05:35.451Z,33.60
2023-02-12T12:08:12.624Z,31.03
2023-02-12T12:10:45.399Z,30.83
2023-02-12T12:13:17.417Z,32.93
2023-02-12T12:16:06.224Z,36.67
2023-02-12T12:19:03.733Z,31.37
2023-02-12T12:21:39.022Z,31.80
2023-02-12T12:24:15.013Z,33.40
2023-02-12T12:26:48.749Z,42.47
2023-02-12T12:29:23.526Z,34.20
2023-02-12T12:31:57.172Z,36.70
2023-02-12T12:34:28.914Z,44.67
2023-02-12T12:37:22.679Z,36.93
2023-02-12T12:40:07.521Z,39.13
2023-02-12T12:43:11.405Z,40.83
2023-02-12T12:46:07.192Z,37.70
2023-02-12T12:48:53.777Z,35.50
2023-02-12T12:51:38.425Z,41.37
2023-02-12T12:54:20.240Z,36.60
2023-02-12T12:56:59.638Z,39.70
2023-02-12T12:59:49.526Z,42.03
2023-02-12T13:03:11.799Z,40.20
2023-02-12T13:06:00.000Z,40.23
2023-02-12T13:08:49.091Z,39.30
2023-02-12T13:11:29.963Z,39.57
2023-02-12T13:14:05.869Z,38.27
2023-02-12T13:16:39.425Z,40.20
2023-02-12T13:19:16.831Z,41.00
2023-02-12T13:21:52.523Z,42.50
2023-02-12T13:24:32.945Z,40.60
2023-02-12T13:27:05.631Z,41.07
2023-02-12T13:29:38.233Z,40.17
2023-02-12T13:32:13.093Z,46.97
2023-02-12T13:34:42.871Z,44.10
2023-02-12T13:37:17.243Z,39.60
2023-02-12T13:39:49.678Z,47.50
2023-02-12T13:42:38.536Z,45.03
2023-02-12T13:45:21.100Z,50.73
2023-02-12T13:48:00.461Z,47.20
2023-02-12T13:50:41.567Z,46.03
2023-02-12T13:53:15.253Z,50.13
2023-02-12T13:56:01.780Z,53.53
2023-02-12T13:58:50.149Z,53.30
2023-02-12T14:01:37.814Z,49.43
2023-02-12T14:04:17.177Z,50.33
2023-02-12T14:06:54.451Z,50.80
2023-02-12T14:09:27.930Z,58.40
2023-02-12T14:11:57.819Z,54.53
2023-02-12T14:14:29.118Z,60.90
2023-02-12T14:16:57.231Z,60.93
2023-02-12T14:19:55.599Z,54.93
2023-02-12T14:23:26.816Z,54.87
2023-02-12T14:26:04.177Z,62.27
2023-02-12T14:28:51.027Z,59.37
2023-02-12T14:31:24.842Z,64.53
2023-02-12T14:34:15.356Z,61.57
2023-02-12T14:36:44.966Z,57.90
2023-02-12T14:39:30.382Z,67.00
2023-02-12T14:42:37.021Z,63.50
2023-02-12T14:45:06.899Z,71.70
2023-02-12T14:47:55.166Z,63.50
2023-02-12T14:50:42.544Z,73.80
2023-02-12T14:53:25.030Z,83.83
2023-02-12T14:55:53.850Z,70.70
2023-02-12T14:58:25.466Z,65.80
2023-02-12T15:00:57.262Z,72.43
2023-02-12T15:03:38.408Z,66.70
2023-02-12T15:06:11.515Z,71.80
2023-02-12T15:08:45.851Z,75.93
2023-02-12T15:11:30.368Z,70.83
2023-02-12T15:14:03.454Z,71.10
2023-02-12T15:16:41.169Z,64.10
2023-02-12T15:19:19.688Z,73.43
2023-02-12T15:21:48.281Z,78.73
2023-02-12T15:24:23.770Z,71.20
2023-02-12T15:26:53.547Z,69.40
2023-02-12T15:29:25.154Z,69.87
2023-02-12T15:31:57.450Z,72.13
2023-02-12T15:34:28.718Z,76.50
2023-02-12T15:36:59.465Z,74.93
2023-02-12T15:39:28.170Z,60.70
2023-02-12T15:41:56.625Z,68.63
2023-02-12T15:44:27.835Z,72.13
2023-02-12T15:47:03.818Z,62.83
2023-02-12T15:49:36.746Z,136.67
2023-02-12T15:52:09.622Z,71.23
2023-02-12T15:54:39.108Z,77.57
2023-02-12T15:57:13.172Z,73.37
2023-02-12T15:59:42.423Z,78.23
2023-02-12T16:02:20.660Z,78.20
2023-02-12T16:04:49.162Z,76.50
2023-02-12T16:07:18.465Z,73.20
2023-02-12T16:09:47.841Z,75.40
2023-02-12T16:12:20.400Z,81.73
2023-02-12T16:14:51.417Z,74.87
2023-02-12T16:17:28.860Z,82.77
2023-02-12T16:19:59.058Z,88.13
2023-02-12T16:22:33.790Z,106.23
2023-02-12T16:25:03.153Z,90.00
2023-02-12T16:27:34.311Z,90.77
2023-02-12T16:30:05.034Z,91.27
2023-02-12T16:32:41.020Z,86.77
2023-02-12T16:35:28.131Z,79.63
2023-02-12T16:38:01.455Z,83.70
2023-02-12T16:40:33.389Z,84.93
2023-02-12T16:43:07.740Z,89.60
2023-02-12T16:45:45.220Z,85.53
2023-02-12T16:48:25.148Z,89.63
2023-02-12T16:50:55.858Z,82.63
2023-02-12T16:53:37.398Z,97.27
2023-02-12T16:56:06.877Z,81.83
2023-02-12T16:58:34.916Z,85.90
2023-02-12T17:01:06.467Z,79.07
2023-02-12T17:03:36.666Z,91.07
2023-02-12T17:06:04.929Z,83.17
2023-02-12T17:08:33.138Z,90.33
2023-02-12T17:11:01.247Z,88.30
2023-02-12T17:13:29.262Z,85.53
2023-02-12T17:15:59.439Z,87.43
2023-02-12T17:18:28.390Z,94.73
2023-02-12T17:21:00.019Z,83.20
2023-02-12T17:23:28.729Z,84.43
2023-02-12T17:25:57.178Z,99.37
2023-02-12T17:28:26.160Z,119.97
2023-02-12T17:30:55.533Z,92.53
2023-02-12T17:33:23.805Z,115.77
2023-02-12T17:35:51.929Z,100.63
2023-02-12T17:38:21.413Z,93.57
2023-02-12T17:40:49.553Z,103.07
2023-02-12T17:43:17.813Z,104.47
2023-02-12T17:45:45.989Z,99.40
2023-02-12T17:48:15.306Z,94.07
2023-02-12T17:50:44.523Z,92.80
2023-02-12T17:53:13.059Z,92.97
2023-02-12T17:55:43.102Z,94.20
2023-02-12T17:58:11.226Z,100.77
2023-02-12T18:00:41.888Z,91.20
2023-02-12T18:03:10.020Z,97.53
2023-02-12T18:05:41.987Z,89.57
2023-02-12T18:08:10.740Z,96.30
2023-02-12T18:10:42.883Z,101.00
2023-02-12T18:13:11.009Z,100.67
2023-02-12T18:15:41.552Z,106.73
2023-02-12T18:18:10.092Z,88.37
2023-02-12T18:20:40.343Z,85.50
2023-02-12T18:23:08.969Z,79.97
2023-02-12T18:25:42.533Z,104.13
2023-02-12T18:28:11.719Z,95.57
2023-02-12T18:30:42.949Z,90.00
2023-02-12T18:33:12.916Z,95.73
2023-02-12T18:35:41.808Z,89.67
2023-02-12T18:38:10.548Z,95.57
2023-02-12T18:40:42.395Z,88.67
2023-02-12T18:43:10.418Z,86.50
2023-02-12T18:45:40.426Z,95.83
2023-02-12T18:48:09.277Z,90.63
2023-02-12T18:50:37.950Z,92.87
2023-02-12T18:53:06.069Z,80.60
2023-02-12T18:55:34.210Z,87.53
2023-02-12T18:58:03.634Z,84.63
2023-02-12T19:00:31.723Z,75.30
2023-02-12T19:02:59.803Z,92.40
2023-02-12T19:05:27.972Z,82.67
2023-02-12T19:07:56.707Z,83.27
2023-02-12T19:10:24.821Z,83.77
2023-02-12T19:12:53.046Z,79.40
2023-02-12T19:15:22.795Z,97.23
2023-02-12T19:17:51.148Z,83.80
2023-02-12T19:20:19.711Z,92.93
2023-02-12T19:22:47.780Z,93.37
2023-02-12T19:25:15.993Z,79.20
2023-02-12T19:27:44.051Z,81.00
2023-02-12T19:30:13.247Z,85.50
2023-02-12T19:32:42.785Z,83.67
2023-02-12T19:35:10.936Z,87.00
2023-02-12T19:37:39.045Z,83.80
2023-02-12T19:40:08.437Z,85.37
2023-02-12T19:42:36.530Z,88.07
2023-02-12T19:45:05.062Z,92.07
2023-02-12T19:47:33.123Z,88.27
2023-02-12T19:50:02.551Z,87.73
2023-02-12T19:52:30.798Z,84.27
2023-02-12T19:54:59.180Z,82.40
2023-02-12T19:57:27.490Z,107.77
2023-02-12T19:59:55.519Z,88.40
2023-02-12T20:02:23.665Z,100.90
2023-02-12T20:04:51.743Z,88.30
2023-02-12T20:07:21.176Z,76.53
2023-02-12T20:09:52.143Z,88.20
2023-02-12T20:12:20.230Z,93.50
2023-02-12T20:14:48.253Z,94.33
2023-02-12T20:17:16.429Z,85.17
2023-02-12T20:19:44.475Z,107.03
2023-02-12T20:22:12.517Z,90.33
2023-02-12T20:24:41.942Z,88.23
2023-02-12T20:27:11.091Z,91.87
2023-02-12T20:29:39.507Z,95.87
2023-02-12T20:32:08.036Z,94.63
2023-02-12T20:34:49.043Z,95.97
2023-02-12T20:37:18.913Z,97.17
2023-02-12T20:39:48.448Z,102.23
2023-02-12T20:42:16.508Z,111.80
2023-02-12T20:44:44.582Z,100.90
2023-02-12T20:47:12.744Z,101.77
2023-02-12T20:49:40.815Z,103.00
2023-02-12T20:52:09.118Z,97.13
2023-02-12T20:54:39.126Z,97.77
2023-02-12T20:57:08.747Z,96.17
2023-02-12T20:59:36.793Z,99.70
2023-02-12T21:02:05.228Z,90.35
2023-02-12T21:04:33.279Z,97.18
2023-02-12T21:07:01.553Z,97.90
2023-02-12T21:09:29.798Z,104.90
2023-02-12T21:11:59.058Z,87.30
2023-02-12T21:14:28.450Z,90.78
2023-02-12T21:16:57.692Z,107.35
2023-02-12T21:19:26.636Z,90.30
2023-02-12T21:21:55.042Z,84.38
2023-02-12T21:24:25.867Z,91.47
2023-02-12T21:26:55.943Z,91.38
2023-02-12T21:29:26.621Z,96.35
2023-02-12T21:31:56.214Z,97.35
2023-02-12T21:34:25.057Z,98.10
2023-02-12T21:36:55.273Z,97.80
2023-02-12T21:39:26.219Z,90.30
2023-02-12T21:41:56.211Z,90.32
2023-02-12T21:44:25.365Z,96.70
2023-02-12T21:46:55.206Z,87.07
2023-02-12T21:49:27.719Z,92.88
2023-02-12T21:51:58.461Z,83.15
2023-02-12T21:54:27.890Z,90.05
2023-02-12T21:56:56.493Z,83.38
2023-02-12T21:59:26.416Z,96.15
2023-02-12T22:01:58.585Z,104.97
2023-02-12T22:04:27.571Z,107.05
2023-02-12T22:06:56.555Z,81.35
2023-02-12T22:09:24.789Z,101.18
2023-02-12T22:11:53.184Z,103.60
2023-02-12T22:14:22.052Z,91.63
2023-02-12T22:16:50.256Z,94.80
2023-02-12T22:19:20.045Z,96.18
2023-02-12T22:21:51.718Z,84.82
2023-02-12T22:24:20.339Z,83.13
2023-02-12T22:26:48.404Z,80.78
2023-02-12T22:29:17.269Z,88.03
2023-02-12T22:31:46.913Z,75.60
2023-02-12T22:34:16.805Z,93.88
2023-02-12T22:36:46.634Z,80.80
2023-02-12T22:39:17.472Z,91.75
2023-02-12T22:41:46.064Z,81.20
2023-02-12T22:44:15.301Z,88.43
2023-02-12T22:46:44.263Z,88.63
2023-02-12T22:49:12.494Z,92.72
2023-02-12T22:51:41.031Z,85.00
2023-02-12T22:54:14.462Z,97.32
2023-02-12T22:56:42.888Z,89.22
2023-02-12T22:59:12.085Z,93.03
2023-02-12T23:01:40.322Z,82.22
2023-02-12T23:04:08.644Z,94.18
2023-02-12T23:06:36.798Z,82.45
2023-02-12T23:09:05.914Z,80.65
2023-02-12T23:11:35.622Z,102.07
2023-02-12T23:14:03.669Z,92.00
2023-02-12T23:16:31.983Z,85.40
2023-02-12T23:19:02.034Z,86.70
2023-02-12T23:21:31.235Z,84.75
2023-02-12T23:24:00.196Z,76.70
2023-02-12T23:26:28.862Z,86.93
2023-02-12T23:28:59.096Z,89.00
2023-02-12T23:31:27.374Z,88.45
2023-02-12T23:33:55.475Z,84.15
2023-02-12T23:36:23.574Z,76.00
2023-02-12T23:38:51.586Z,75.15
2023-02-12T23:41:19.693Z,72.47
2023-02-12T23:43:47.886Z,81.75
2023-02-12T23:46:17.484Z,80.80
2023-02-12T23:48:45.604Z,80.88
2023-02-12T23:51:13.671Z,88.63
2023-02-12T23:53:41.744Z,90.63
2023-02-12T23:56:10.053Z,86.25
2023-02-12T23:58:38.214Z,81.97
